createdAt,value
2018-11-28T00:00:09.759Z,102355.42
2018-11-28T00:02:38.068Z,102351.12
2018-11-28T00:05:09.416Z,102344.69
2018-11-28T00:07:37.805Z,102346.77
2018-11-28T00:10:09.155Z,102353.68
2018-11-28T00:12:37.967Z,102347.22
2018-11-28T00:15:07.260Z,102337.36
2018-11-28T00:17:35.992Z,102336.66
2018-11-28T00:20:04.512Z,102333.54
2018-11-28T00:22:32.665Z,102341.30
2018-11-28T00:25:00.815Z,102335.95
2018-11-28T00:27:28.934Z,102340.69
2018-11-28T00:29:57.080Z,102341.30
2018-11-28T00:32:25.372Z,102339.52
2018-11-28T00:34:53.532Z,102336.27
2018-11-28T00:37:21.827Z,102336.74
2018-11-28T00:39:50.014Z,102333.11
2018-11-28T00:42:18.194Z,102321.14
2018-11-28T00:44:46.431Z,102327.16
2018-11-28T00:47:14.547Z,102337.34
2018-11-28T00:49:42.721Z,102336.10
2018-11-28T00:52:10.924Z,102338.40
2018-11-28T00:54:39.106Z,102341.94
2018-11-28T00:57:07.195Z,102345.52
2018-11-28T00:59:35.342Z,102346.89
2018-11-28T01:02:04.016Z,102350.45
2018-11-28T01:04:32.112Z,102346.13
2018-11-28T01:07:02.511Z,102348.63
2018-11-28T01:09:30.764Z,102352.24
2018-11-28T01:11:58.913Z,102358.25
2018-11-28T01:14:27.095Z,102363.42
2018-11-28T01:16:55.291Z,102365.59
2018-11-28T01:19:23.443Z,102366.03
2018-11-28T01:21:51.639Z,102368.50
2018-11-28T01:24:19.887Z,102374.57
2018-11-28T01:26:48.103Z,102379.71
2018-11-28T01:29:16.304Z,102378.48
2018-11-28T01:31:44.453Z,102378.48
2018-11-28T01:34:12.610Z,102384.66
2018-11-28T01:36:40.756Z,102375.43
2018-11-28T01:39:08.923Z,102374.97
2018-11-28T01:41:37.074Z,102370.45
2018-11-28T01:44:05.777Z,102367.44
2018-11-28T01:46:33.892Z,102369.18
2018-11-28T01:49:02.023Z,102373.80
2018-11-28T01:51:30.191Z,102369.13
2018-11-28T01:53:58.315Z,102367.52
2018-11-28T01:56:26.441Z,102366.75
2018-11-28T01:58:54.629Z,102365.73
2018-11-28T02:01:22.810Z,102365.02
2018-11-28T02:03:51.008Z,102370.53
2018-11-28T02:06:19.215Z,102370.36
2018-11-28T02:08:47.345Z,102365.02
2018-11-28T02:11:15.504Z,102367.19
2018-11-28T02:13:43.624Z,102365.35
2018-11-28T02:16:11.743Z,102364.57
2018-11-28T02:18:39.975Z,102357.55
2018-11-28T02:21:08.143Z,102355.27
2018-11-28T02:23:36.247Z,102358.73
2018-11-28T02:26:04.387Z,102366.51
2018-11-28T02:28:32.489Z,102367.41
2018-11-28T02:31:00.817Z,102371.09
2018-11-28T02:33:28.959Z,102362.96
2018-11-28T02:35:57.325Z,102365.68
2018-11-28T02:38:25.502Z,102373.20
2018-11-28T02:40:53.775Z,102377.89
2018-11-28T02:43:21.967Z,102376.09
2018-11-28T02:46:01.465Z,102379.55
2018-11-28T02:48:29.577Z,102381.78
2018-11-28T02:50:57.753Z,102386.00
2018-11-28T02:53:25.903Z,102386.37
2018-11-28T02:55:54.039Z,102390.57
2018-11-28T02:58:28.927Z,102385.14
2018-11-28T03:00:57.034Z,102392.83
2018-11-28T03:03:25.176Z,102394.38
2018-11-28T03:05:53.434Z,102388.45
2018-11-28T03:08:21.693Z,102392.11
2018-11-28T03:10:49.874Z,102398.81
2018-11-28T03:13:18.009Z,102405.33
2018-11-28T03:15:48.991Z,102406.83
2018-11-28T03:18:17.787Z,102405.39
2018-11-28T03:20:45.923Z,102403.21
2018-11-28T03:23:14.091Z,102405.98
2018-11-28T03:25:42.176Z,102406.75
2018-11-28T03:28:10.355Z,102405.48
2018-11-28T03:30:38.425Z,102401.52
2018-11-28T03:33:06.557Z,102407.09
2018-11-28T03:35:34.679Z,102413.91
2018-11-28T03:38:02.981Z,102414.43
2018-11-28T03:40:31.192Z,102409.86
2018-11-28T03:42:59.388Z,102409.78
2018-11-28T03:45:27.479Z,102417.41
2018-11-28T03:47:55.710Z,102422.22
2018-11-28T03:50:23.842Z,102425.42
2018-11-28T03:52:52.019Z,102420.94
2018-11-28T03:55:20.274Z,102422.44
2018-11-28T03:57:48.648Z,102424.31
2018-11-28T04:00:19.926Z,102427.34
2018-11-28T04:02:48.452Z,102430.23
2018-11-28T04:05:16.617Z,102428.33
2018-11-28T04:07:44.735Z,102433.09
2018-11-28T04:10:13.891Z,102431.21
2018-11-28T04:12:42.751Z,102434.53
2018-11-28T04:15:14.048Z,102442.70
2018-11-28T04:17:42.246Z,102436.87
2018-11-28T04:20:11.983Z,102442.30
2018-11-28T04:22:40.100Z,102451.55
2018-11-28T04:25:09.287Z,102453.77
2018-11-28T04:27:37.484Z,102441.10
2018-11-28T04:30:10.174Z,102445.89
2018-11-28T04:32:38.363Z,102453.56
2018-11-28T04:35:08.313Z,102453.17
2018-11-28T04:37:36.466Z,102451.28
2018-11-28T04:40:07.876Z,102457.89
2018-11-28T04:42:36.129Z,102453.53
2018-11-28T04:45:04.421Z,102456.30
2018-11-28T04:47:32.571Z,102458.89
2018-11-28T04:50:00.684Z,102459.16
2018-11-28T04:52:29.368Z,102466.12
2018-11-28T04:54:57.527Z,102463.20
2018-11-28T04:57:25.680Z,102472.03
2018-11-28T04:59:53.865Z,102465.52
2018-11-28T05:02:22.057Z,102463.58
2018-11-28T05:04:50.180Z,102460.27
2018-11-28T05:07:26.623Z,102458.20
2018-11-28T05:09:55.728Z,102463.46
2018-11-28T05:12:23.840Z,102459.75
2018-11-28T05:14:52.098Z,102461.38
2018-11-28T05:17:20.345Z,102460.23
2018-11-28T05:19:48.655Z,102460.94
2018-11-28T05:22:16.821Z,102464.06
2018-11-28T05:24:45.161Z,102458.24
2018-11-28T05:27:13.292Z,102464.06
2018-11-28T05:32:15.854Z,102469.66
2018-11-28T05:34:44.040Z,102472.36
2018-11-28T05:37:12.223Z,102473.48
2018-11-28T05:39:40.355Z,102482.31
2018-11-28T05:42:08.611Z,102477.70
2018-11-28T05:44:36.893Z,102478.50
2018-11-28T05:47:05.143Z,102479.77
2018-11-28T05:49:33.444Z,102481.01
2018-11-28T05:52:01.580Z,102478.34
2018-11-28T05:54:29.704Z,102488.45
2018-11-28T05:56:57.943Z,102491.80
2018-11-28T05:59:27.478Z,102491.61
2018-11-28T06:01:54.337Z,102491.36
2018-11-28T06:04:22.584Z,102486.20
2018-11-28T06:06:50.965Z,102490.98
2018-11-28T06:09:19.145Z,102496.33
2018-11-28T06:11:47.311Z,102502.00
2018-11-28T06:14:15.574Z,102499.69
2018-11-28T06:16:43.735Z,102506.33
2018-11-28T06:19:11.969Z,102498.25
2018-11-28T06:21:40.089Z,102496.59
2018-11-28T06:24:08.326Z,102506.41
2018-11-28T06:26:36.599Z,102503.78
2018-11-28T06:29:04.745Z,102507.73
2018-11-28T06:31:32.841Z,102511.70
2018-11-28T06:34:01.034Z,102514.96
2018-11-28T06:36:29.229Z,102512.66
2018-11-28T06:38:57.333Z,102510.23
2018-11-28T06:41:25.525Z,102515.33
2018-11-28T06:43:53.693Z,102512.92
2018-11-28T06:46:21.956Z,102513.23
2018-11-28T06:48:50.117Z,102517.50
2018-11-28T06:51:18.393Z,102519.08
2018-11-28T06:53:47.226Z,102528.20
2018-11-28T06:56:14.777Z,102523.00
2018-11-28T06:58:42.983Z,102525.34
2018-11-28T07:01:11.111Z,102522.91
2018-11-28T07:03:39.373Z,102531.20
2018-11-28T07:06:08.482Z,102533.10
2018-11-28T07:08:36.639Z,102537.38
2018-11-28T07:11:04.872Z,102536.30
2018-11-28T07:13:33.007Z,102541.72
2018-11-28T07:16:01.333Z,102540.69
2018-11-28T07:18:40.946Z,102545.22
2018-11-28T07:21:09.151Z,102547.26
2018-11-28T07:23:37.419Z,102549.41
2018-11-28T07:26:05.804Z,102544.82
2018-11-28T07:28:33.971Z,102548.40
2018-11-28T07:31:02.121Z,102555.45
2018-11-28T07:33:30.324Z,102548.20
2018-11-28T07:35:58.513Z,102551.34
2018-11-28T07:38:26.663Z,102560.34
2018-11-28T07:40:54.953Z,102558.42
2018-11-28T07:43:23.153Z,102558.67
2018-11-28T07:45:52.240Z,102562.49
2018-11-28T07:48:20.464Z,102569.90
2018-11-28T07:50:48.597Z,102575.04
2018-11-28T07:53:16.725Z,102577.16
2018-11-28T07:55:45.075Z,102581.97
2018-11-28T07:58:13.259Z,102573.38
2018-11-28T08:00:41.388Z,102579.35
2018-11-28T08:03:09.982Z,102578.38
2018-11-28T08:05:38.875Z,102584.19
2018-11-28T08:08:08.949Z,102583.63
2018-11-28T08:10:37.399Z,102582.35
2018-11-28T08:13:06.130Z,102589.98
2018-11-28T08:15:34.254Z,102587.20
2018-11-28T08:18:02.572Z,102582.70
2018-11-28T08:20:30.773Z,102587.14
2018-11-28T08:22:58.985Z,102592.05
2018-11-28T08:25:28.013Z,102587.34
2018-11-28T08:27:55.453Z,102584.17
2018-11-28T08:30:24.721Z,102581.01
2018-11-28T08:32:53.439Z,102580.03
2018-11-28T08:35:21.593Z,102575.55
2018-11-28T08:37:50.313Z,102578.59
2018-11-28T08:40:23.459Z,102581.71
2018-11-28T08:42:51.865Z,102574.05
2018-11-28T08:45:21.017Z,102578.36
2018-11-28T08:47:50.151Z,102578.18
2018-11-28T08:50:23.623Z,102579.97
2018-11-28T08:52:51.823Z,102581.02
2018-11-28T08:55:19.952Z,102578.50
2018-11-28T08:57:48.151Z,102589.84
2018-11-28T09:00:17.366Z,102585.80
2018-11-28T09:02:46.478Z,102586.52
2018-11-28T09:05:14.999Z,102578.50
2018-11-28T09:07:43.089Z,102579.06
2018-11-28T09:10:13.123Z,102577.09
2018-11-28T09:12:43.197Z,102576.63
2018-11-28T09:15:13.772Z,102581.41
2018-11-28T09:17:41.870Z,102569.97
2018-11-28T09:20:12.192Z,102578.67
2018-11-28T09:22:40.365Z,102583.16
2018-11-28T09:25:10.971Z,102580.55
2018-11-28T09:27:39.184Z,102580.38
2018-11-28T09:30:12.811Z,102576.57
2018-11-28T09:32:41.006Z,102574.83
2018-11-28T09:35:10.084Z,102575.37
2018-11-28T09:37:38.296Z,102572.02
2018-11-28T09:40:11.716Z,102577.82
2018-11-28T09:42:39.897Z,102583.98
2018-11-28T09:45:09.949Z,102583.98
2018-11-28T09:47:38.204Z,102581.20
2018-11-28T09:50:12.208Z,102580.08
2018-11-28T09:52:40.490Z,102573.02
2018-11-28T09:55:11.218Z,102576.64
2018-11-28T09:57:39.387Z,102575.19
2018-11-28T10:00:11.784Z,102574.90
2018-11-28T10:02:40.025Z,102573.88
2018-11-28T10:05:12.077Z,102561.06
2018-11-28T10:07:40.219Z,102568.66
2018-11-28T10:10:10.249Z,102570.61
2018-11-28T10:12:38.438Z,102571.67
2018-11-28T10:15:17.658Z,102569.33
2018-11-28T10:17:46.066Z,102561.27
2018-11-28T10:20:14.908Z,102571.52
2018-11-28T10:22:43.334Z,102569.40
2018-11-28T10:25:14.868Z,102570.77
2018-11-28T10:27:44.106Z,102565.94
2018-11-28T10:30:17.927Z,102563.38
2018-11-28T10:32:46.147Z,102562.72
2018-11-28T10:35:14.313Z,102563.29
2018-11-28T10:37:42.564Z,102559.99
2018-11-28T10:40:13.254Z,102547.23
2018-11-28T10:42:41.404Z,102549.35
2018-11-28T10:45:11.188Z,102544.45
2018-11-28T10:47:39.503Z,102540.27
2018-11-28T10:50:10.753Z,102539.22
2018-11-28T10:52:39.462Z,102535.92
2018-11-28T10:55:13.211Z,102533.62
2018-11-28T10:57:41.389Z,102533.41
2018-11-28T11:00:15.333Z,102536.20
2018-11-28T11:02:49.120Z,102537.53
2018-11-28T11:05:23.616Z,102542.44
2018-11-28T11:07:57.024Z,102543.65
2018-11-28T11:10:30.653Z,102538.87
2018-11-28T11:13:04.238Z,102539.20
2018-11-28T11:15:32.380Z,102545.05
2018-11-28T11:18:02.251Z,102535.11
2018-11-28T11:20:28.787Z,102532.05
2018-11-28T11:22:57.350Z,102538.01
2018-11-28T11:25:25.479Z,102537.45
2018-11-28T11:27:53.719Z,102530.34
2018-11-28T11:30:21.867Z,102535.19
2018-11-28T11:32:50.116Z,102533.70
2018-11-28T11:35:18.227Z,102528.98
2018-11-28T11:37:46.531Z,102530.50
2018-11-28T11:40:15.041Z,102533.52
2018-11-28T11:42:43.181Z,102532.42
2018-11-28T11:45:14.582Z,102527.50
2018-11-28T11:47:42.972Z,102527.95
2018-11-28T11:50:14.181Z,102530.70
2018-11-28T11:52:42.354Z,102530.63
2018-11-28T11:55:14.883Z,102516.20
2018-11-28T11:57:43.082Z,102526.23
2018-11-28T12:00:16.845Z,102525.27
2018-11-28T12:03:05.965Z,102523.75
2018-11-28T12:05:34.071Z,102521.53
2018-11-28T12:08:02.252Z,102511.16
2018-11-28T12:10:30.338Z,102503.65
2018-11-28T12:12:58.656Z,102507.34
2018-11-28T12:15:26.880Z,102515.86
2018-11-28T12:17:55.139Z,102509.59
2018-11-28T12:20:26.185Z,102506.06
2018-11-28T12:22:54.307Z,102498.67
2018-11-28T12:25:22.561Z,102501.98
2018-11-28T12:27:51.370Z,102504.85
2018-11-28T12:30:19.644Z,102493.61
2018-11-28T12:32:47.922Z,102502.83
2018-11-28T12:35:17.405Z,102496.22
2018-11-28T12:37:45.616Z,102500.92
2018-11-28T12:40:14.804Z,102490.15
2018-11-28T12:42:46.341Z,102489.02
2018-11-28T12:45:15.436Z,102482.72
2018-11-28T12:47:44.730Z,102488.44
2018-11-28T12:50:15.295Z,102492.80
2018-11-28T12:52:43.450Z,102486.45
2018-11-28T12:55:11.607Z,102478.75
2018-11-28T12:57:39.825Z,102477.81
2018-11-28T13:00:11.191Z,102476.34
2018-11-28T13:02:39.371Z,102472.26
2018-11-28T13:05:09.926Z,102460.70
2018-11-28T13:07:38.022Z,102464.08
2018-11-28T13:10:11.718Z,102466.98
2018-11-28T13:12:40.280Z,102464.66
2018-11-28T13:15:10.605Z,102471.08
2018-11-28T13:17:38.923Z,102462.09
2018-11-28T13:20:08.656Z,102461.04
2018-11-28T13:22:36.932Z,102452.56
2018-11-28T13:25:06.041Z,102456.65
2018-11-28T13:27:34.177Z,102448.95
2018-11-28T13:30:02.746Z,102454.08
2018-11-28T13:32:30.946Z,102447.73
2018-11-28T13:34:59.125Z,102453.58
2018-11-28T13:37:27.271Z,102445.25
2018-11-28T13:39:55.474Z,102443.30
2018-11-28T13:42:23.651Z,102440.97
2018-11-28T13:44:51.939Z,102441.17
2018-11-28T13:47:20.232Z,102439.42
2018-11-28T13:49:48.377Z,102446.34
2018-11-28T13:52:16.526Z,102438.80
2018-11-28T13:55:38.580Z,102437.90
2018-11-28T13:57:12.997Z,102443.23
2018-11-28T13:59:42.425Z,102448.38
2018-11-28T14:02:10.414Z,102457.28
2018-11-28T14:04:38.577Z,102462.58
2018-11-28T14:07:07.425Z,102461.52
2018-11-28T14:09:35.587Z,102461.21
2018-11-28T14:12:03.760Z,102460.86
2018-11-28T14:14:31.880Z,102458.92
2018-11-28T14:17:00.056Z,102450.45
2018-11-28T14:19:28.256Z,102450.41
2018-11-28T14:21:56.495Z,102457.39
2018-11-28T14:24:24.665Z,102464.86
2018-11-28T14:26:52.879Z,102458.52
2018-11-28T14:29:21.006Z,102460.81
2018-11-28T14:31:49.143Z,102459.91
2018-11-28T14:34:17.298Z,102456.45
2018-11-28T14:36:45.523Z,102455.09
2018-11-28T14:39:13.689Z,102462.52
2018-11-28T14:41:41.920Z,102463.28
2018-11-28T14:44:10.147Z,102462.08
2018-11-28T14:46:38.370Z,102457.02
2018-11-28T14:49:06.595Z,102457.44
2018-11-28T14:51:34.780Z,102454.13
2018-11-28T14:54:02.923Z,102450.52
2018-11-28T14:56:31.086Z,102452.56
2018-11-28T14:58:59.252Z,102444.28
2018-11-28T15:01:27.441Z,102445.38
2018-11-28T15:03:55.661Z,102446.00
2018-11-28T15:06:34.514Z,102452.25
2018-11-28T15:09:07.957Z,102447.84
2018-11-28T15:11:36.193Z,102454.71
2018-11-28T15:14:04.354Z,102456.84
2018-11-28T15:16:32.568Z,102458.91
2018-11-28T15:19:00.672Z,102455.19
2018-11-28T15:21:28.912Z,102445.03
2018-11-28T15:23:57.075Z,102451.89
2018-11-28T15:26:25.195Z,102449.70
2018-11-28T15:28:53.367Z,102452.28
2018-11-28T15:31:21.542Z,102454.45
2018-11-28T15:33:49.802Z,102455.45
2018-11-28T15:36:17.982Z,102449.89
2018-11-28T15:38:46.135Z,102451.45
2018-11-28T15:41:14.337Z,102455.30
2018-11-28T15:43:42.534Z,102450.94
2018-11-28T15:46:14.879Z,102453.80
2018-11-28T15:48:39.015Z,102461.26
2018-11-28T15:51:07.271Z,102462.03
2018-11-28T15:53:35.464Z,102461.06
2018-11-28T15:56:03.640Z,102460.14
2018-11-28T15:58:31.792Z,102468.20
2018-11-28T16:00:59.957Z,102464.47
2018-11-28T16:03:28.104Z,102468.14
2018-11-28T16:05:56.334Z,102454.27
2018-11-28T16:08:24.484Z,102451.27
2018-11-28T16:10:52.818Z,102459.88
2018-11-28T16:13:20.994Z,102457.92
2018-11-28T16:15:56.359Z,102458.20
2018-11-28T16:18:24.503Z,102454.08
2018-11-28T16:20:52.719Z,102455.58
2018-11-28T16:23:20.870Z,102462.88
2018-11-28T16:25:48.977Z,102465.52
2018-11-28T16:28:17.260Z,102464.83
2018-11-28T16:30:45.460Z,102467.47
2018-11-28T16:33:13.634Z,102481.83
2018-11-28T16:35:41.778Z,102480.03
2018-11-28T16:38:09.954Z,102482.26
2018-11-28T16:40:38.222Z,102481.05
2018-11-28T16:43:06.614Z,102482.25
2018-11-28T16:45:35.088Z,102480.31
2018-11-28T16:48:03.682Z,102482.95
2018-11-28T16:50:31.946Z,102484.97
2018-11-28T16:53:00.126Z,102485.02
2018-11-28T16:55:28.341Z,102484.29
2018-11-28T16:57:56.513Z,102482.16
2018-11-28T17:00:26.995Z,102486.87
2018-11-28T17:02:55.813Z,102482.77
2018-11-28T17:05:24.119Z,102477.41
2018-11-28T17:07:52.879Z,102479.55
2018-11-28T17:10:22.397Z,102481.88
2018-11-28T17:12:51.051Z,102470.29
2018-11-28T17:15:19.788Z,102472.00
2018-11-28T17:17:47.950Z,102469.09
2018-11-28T17:20:21.110Z,102460.60
2018-11-28T17:22:50.206Z,102464.88
2018-11-28T17:25:24.602Z,102467.43
2018-11-28T17:27:52.892Z,102466.20
2018-11-28T17:30:22.483Z,102460.36
2018-11-28T17:32:50.684Z,102455.84
2018-11-28T17:35:18.904Z,102456.95
2018-11-28T17:37:47.215Z,102461.05
2018-11-28T17:40:17.226Z,102469.78
2018-11-28T17:42:47.547Z,102465.47
2018-11-28T17:45:16.751Z,102469.66
2018-11-28T17:47:44.955Z,102469.31
2018-11-28T17:50:15.503Z,102474.72
2018-11-28T17:52:45.772Z,102467.78
2018-11-28T17:55:15.490Z,102465.98
2018-11-28T17:57:43.734Z,102471.01
2018-11-28T18:00:13.205Z,102464.41
2018-11-28T18:02:41.663Z,102463.22
2018-11-28T18:05:10.785Z,102461.72
2018-11-28T18:07:39.054Z,102457.08
2018-11-28T18:10:22.649Z,102459.50
2018-11-28T18:13:06.666Z,102456.95
2018-11-28T18:15:34.916Z,102452.14
2018-11-28T18:18:03.249Z,102454.95
2018-11-28T18:20:31.476Z,102454.81
2018-11-28T18:22:59.750Z,102453.70
2018-11-28T18:25:29.558Z,102446.51
2018-11-28T18:27:58.638Z,102441.61
2018-11-28T18:30:26.926Z,102444.84
2018-11-28T18:32:55.096Z,102440.33
2018-11-28T18:35:23.314Z,102442.41
2018-11-28T18:37:52.163Z,102434.80
2018-11-28T18:40:20.397Z,102437.22
2018-11-28T18:42:48.684Z,102445.06
2018-11-28T18:45:22.417Z,102440.75
2018-11-28T18:47:50.562Z,102442.29
2018-11-28T18:50:18.826Z,102437.39
2018-11-28T18:52:47.004Z,102439.35
2018-11-28T18:55:16.977Z,102446.59
2018-11-28T18:57:44.938Z,102452.43
2018-11-28T19:00:21.422Z,102455.33
2018-11-28T19:02:49.718Z,102448.13
2018-11-28T19:05:18.003Z,102452.69
2018-11-28T19:07:47.280Z,102453.16
2018-11-28T19:10:16.641Z,102452.17
2018-11-28T19:12:44.916Z,102448.33
2018-11-28T19:15:15.435Z,102453.36
2018-11-28T19:17:44.188Z,102454.84
2018-11-28T19:20:19.893Z,102455.36
2018-11-28T19:22:48.619Z,102456.43
2018-11-28T19:25:17.886Z,102459.50
2018-11-28T19:27:46.475Z,102455.78
2018-11-28T19:30:17.219Z,102460.17
2018-11-28T19:32:45.646Z,102462.04
2018-11-28T19:35:13.902Z,102459.10
2018-11-28T19:37:42.800Z,102461.97
2018-11-28T19:40:13.559Z,102452.41
2018-11-28T19:42:48.450Z,102455.69
2018-11-28T19:45:16.773Z,102459.31
2018-11-28T19:47:45.023Z,102464.47
2018-11-28T19:50:17.506Z,102462.39
2018-11-28T19:52:45.727Z,102465.98
2018-11-28T19:55:14.014Z,102468.68
2018-11-28T19:57:42.295Z,102462.50
2018-11-28T20:00:16.019Z,102466.41
2018-11-28T20:02:44.976Z,102465.27
2018-11-28T20:05:13.283Z,102463.52
2018-11-28T20:07:44.436Z,102459.92
2018-11-28T20:12:39.701Z,102456.44
2018-11-28T20:15:12.872Z,102457.72
2018-11-28T20:17:42.218Z,102458.48
2018-11-28T20:20:12.340Z,102446.91
2018-11-28T20:22:42.271Z,102450.80
2018-11-28T20:27:37.506Z,102464.86
2018-11-28T20:30:13.196Z,102466.04
2018-11-28T20:32:41.514Z,102462.73
2018-11-28T20:35:11.726Z,102464.33
2018-11-28T20:37:40.654Z,102457.73
2018-11-28T20:40:14.638Z,102447.72
2018-11-28T20:42:45.416Z,102450.37
2018-11-28T20:45:13.902Z,102453.36
2018-11-28T20:47:43.103Z,102456.72
2018-11-28T20:52:42.481Z,102472.19
2018-11-28T20:55:11.285Z,102476.78
2018-11-28T20:57:39.567Z,102474.85
2018-11-28T21:00:12.408Z,102472.16
2018-11-28T21:02:41.220Z,102471.40
2018-11-28T21:05:10.137Z,102475.41
2018-11-28T21:07:38.377Z,102472.57
2018-11-28T21:10:14.789Z,102463.22
2018-11-28T21:12:43.042Z,102449.66
2018-11-28T21:15:12.471Z,102444.20
2018-11-28T21:17:40.773Z,102437.30
2018-11-28T21:20:13.668Z,102430.53
2018-11-28T21:22:42.223Z,102441.20
2018-11-28T21:25:11.861Z,102434.33
2018-11-28T21:27:40.186Z,102432.08
2018-11-28T21:30:16.689Z,102425.84
2018-11-28T21:32:45.162Z,102416.39
2018-11-28T21:35:15.656Z,102417.25
2018-11-28T21:37:43.938Z,102414.11
2018-11-28T21:40:12.582Z,102409.63
2018-11-28T21:42:40.928Z,102411.28
2018-11-28T21:45:14.602Z,102410.14
2018-11-28T21:47:43.426Z,102412.01
2018-11-28T21:50:13.699Z,102406.86
2018-11-28T21:52:42.132Z,102409.80
2018-11-28T21:55:16.081Z,102417.25
2018-11-28T21:57:44.463Z,102424.91
2018-11-28T22:00:16.907Z,102426.53
2018-11-28T22:02:45.133Z,102425.26
2018-11-28T22:05:14.175Z,102426.74
2018-11-28T22:07:42.365Z,102424.09
2018-11-28T22:10:15.731Z,102410.52
2018-11-28T22:12:43.949Z,102401.20
2018-11-28T22:15:13.119Z,102403.06
2018-11-28T22:17:43.612Z,102398.89
2018-11-28T22:20:12.579Z,102406.32
2018-11-28T22:22:40.769Z,102400.59
2018-11-28T22:25:18.745Z,102400.03
2018-11-28T22:27:47.073Z,102394.20
2018-11-28T22:30:16.392Z,102391.09
2018-11-28T22:32:44.621Z,102394.93
2018-11-28T22:35:12.873Z,102394.31
2018-11-28T22:37:41.047Z,102396.22
2018-11-28T22:40:15.607Z,102393.94
2018-11-28T22:42:43.743Z,102388.66
2018-11-28T22:45:15.267Z,102398.88
2018-11-28T22:47:43.453Z,102416.22
2018-11-28T22:50:12.649Z,102405.91
2018-11-28T22:52:40.879Z,102400.45
2018-11-28T22:55:12.057Z,102390.91
2018-11-28T22:57:40.209Z,102393.39
2018-11-28T23:00:11.307Z,102383.04
2018-11-28T23:02:58.147Z,102380.34
2018-11-28T23:05:28.227Z,102388.08
2018-11-28T23:07:57.388Z,102387.00
2018-11-28T23:10:25.712Z,102388.80
2018-11-28T23:12:53.860Z,102377.27
2018-11-28T23:15:22.034Z,102376.73
2018-11-28T23:17:54.872Z,102361.00
2018-11-28T23:20:18.413Z,102368.45
2018-11-28T23:22:46.557Z,102356.10
2018-11-28T23:25:14.770Z,102357.38
2018-11-28T23:27:42.990Z,102356.83
2018-11-28T23:30:12.675Z,102360.54
2018-11-28T23:32:40.923Z,102367.58
2018-11-28T23:35:10.158Z,102369.69
2018-11-28T23:37:38.732Z,102365.03
2018-11-28T23:40:09.795Z,102360.23
2018-11-28T23:42:38.051Z,102353.75
2018-11-28T23:45:07.891Z,102341.76
2018-11-28T23:47:36.047Z,102337.79
2018-11-28T23:50:04.746Z,102338.20
2018-11-28T23:52:33.030Z,102333.34
2018-11-28T23:55:01.190Z,102324.93
2018-11-28T23:57:29.359Z,102332.20
2018-11-28T23:59:57.494Z,102338.06
